createdAt,value
2019-01-27T00:00:19.553Z,77.86
2019-01-27T00:05:21.228Z,77.79
2019-01-27T00:10:22.983Z,77.73
2019-01-27T00:15:24.772Z,77.78
2019-01-27T00:20:27.136Z,77.75
2019-01-27T00:25:28.812Z,77.73
2019-01-27T00:30:31.826Z,77.70
2019-01-27T00:35:33.493Z,77.67
2019-01-27T00:40:35.264Z,77.59
2019-01-27T00:45:36.939Z,77.57
2019-01-27T00:50:38.624Z,77.55
2019-01-27T00:55:40.310Z,77.53
2019-01-27T01:00:41.987Z,77.58
2019-01-27T01:05:43.653Z,77.48
2019-01-27T01:10:45.416Z,77.47
2019-01-27T01:15:47.045Z,77.45
2019-01-27T01:20:48.725Z,77.41
2019-01-27T01:25:50.671Z,77.39
2019-01-27T01:30:52.388Z,77.40
2019-01-27T01:35:56.114Z,77.31
2019-01-27T01:40:57.718Z,77.29
2019-01-27T01:45:59.443Z,77.31
2019-01-27T01:51:01.060Z,77.29
2019-01-27T01:56:03.252Z,77.27
2019-01-27T02:01:04.935Z,77.21
2019-01-27T02:06:06.651Z,77.20
2019-01-27T02:11:08.356Z,77.16
2019-01-27T02:16:10.087Z,77.12
2019-01-27T02:21:11.778Z,77.14
2019-01-27T02:26:13.668Z,77.07
2019-01-27T02:31:15.377Z,77.01
2019-01-27T02:36:16.967Z,76.96
2019-01-27T02:41:18.649Z,76.95
2019-01-27T02:46:20.344Z,76.92
2019-01-27T02:51:21.949Z,76.94
2019-01-27T02:56:23.640Z,76.92
2019-01-27T03:01:25.348Z,76.93
2019-01-27T03:06:55.541Z,76.90
2019-01-27T03:11:57.263Z,76.84
2019-01-27T03:16:58.965Z,76.82
2019-01-27T03:22:00.654Z,76.88
2019-01-27T03:27:02.372Z,76.92
2019-01-27T03:32:04.193Z,76.84
2019-01-27T03:37:05.908Z,76.86
2019-01-27T03:42:07.590Z,76.83
2019-01-27T03:47:09.288Z,76.79
2019-01-27T03:52:10.982Z,76.75
2019-01-27T03:57:12.561Z,76.67
2019-01-27T04:02:14.133Z,76.62
2019-01-27T04:07:15.841Z,76.64
2019-01-27T04:12:17.640Z,76.61
2019-01-27T04:17:19.345Z,76.58
2019-01-27T04:22:21.024Z,76.59
2019-01-27T04:27:22.594Z,76.48
2019-01-27T04:32:24.180Z,76.49
2019-01-27T04:37:25.785Z,76.51
2019-01-27T04:42:27.374Z,76.50
2019-01-27T04:47:29.053Z,76.38
2019-01-27T04:52:30.653Z,76.39
2019-01-27T04:57:32.306Z,76.43
2019-01-27T05:02:39.541Z,76.40
2019-01-27T05:07:41.116Z,76.39
2019-01-27T05:12:42.719Z,76.35
2019-01-27T05:17:44.301Z,76.32
2019-01-27T05:22:45.906Z,76.27
2019-01-27T05:27:47.587Z,76.28
2019-01-27T05:32:49.269Z,76.19
2019-01-27T05:37:50.949Z,76.23
2019-01-27T05:42:52.538Z,76.26
2019-01-27T05:47:54.120Z,76.21
2019-01-27T05:52:55.707Z,76.20
2019-01-27T05:57:57.290Z,76.16
2019-01-27T06:02:59.899Z,76.18
2019-01-27T06:08:01.684Z,76.12
2019-01-27T06:13:03.482Z,76.14
2019-01-27T06:18:05.174Z,76.07
2019-01-27T06:23:06.862Z,76.05
2019-01-27T06:28:08.416Z,76.04
2019-01-27T06:33:38.556Z,76.07
2019-01-27T06:38:40.106Z,75.99
2019-01-27T06:43:41.701Z,75.90
2019-01-27T06:48:43.282Z,75.85
2019-01-27T06:53:44.894Z,75.85
2019-01-27T06:59:17.962Z,75.89
2019-01-27T07:04:32.613Z,75.89
2019-01-27T07:10:00.244Z,75.82
2019-01-27T07:15:24.430Z,75.74
2019-01-27T07:20:50.465Z,75.58
2019-01-27T07:25:59.303Z,75.55
2019-01-27T07:31:19.200Z,75.55
2019-01-27T07:36:40.573Z,75.55
2019-01-27T07:42:19.720Z,75.52
2019-01-27T07:47:37.259Z,75.48
2019-01-27T07:52:54.372Z,75.42
2019-01-27T07:58:14.504Z,75.34
2019-01-27T08:03:35.752Z,75.28
2019-01-27T08:08:44.125Z,75.15
2019-01-27T08:13:51.152Z,75.00
2019-01-27T08:19:18.249Z,74.84
2019-01-27T08:24:26.195Z,74.98
2019-01-27T08:29:50.333Z,75.14
2019-01-27T08:34:58.515Z,75.16
2019-01-27T08:40:22.580Z,74.97
2019-01-27T08:45:34.323Z,74.81
2019-01-27T08:50:35.895Z,74.70
2019-01-27T08:55:37.518Z,74.59
2019-01-27T09:00:41.665Z,74.64
2019-01-27T09:05:51.657Z,74.51
2019-01-27T09:11:04.115Z,74.33
2019-01-27T09:16:31.266Z,74.42
2019-01-27T09:21:52.284Z,74.41
2019-01-27T09:27:09.997Z,74.29
2019-01-27T09:32:31.526Z,74.59
2019-01-27T09:37:51.324Z,74.86
2019-01-27T09:43:02.283Z,74.94
2019-01-27T09:48:26.424Z,74.93
2019-01-27T09:53:35.994Z,74.79
2019-01-27T09:58:55.655Z,74.66
2019-01-27T10:04:19.999Z,74.44
2019-01-27T10:09:50.292Z,74.31
2019-01-27T10:15:32.439Z,74.28
2019-01-27T10:20:53.670Z,74.40
2019-01-27T10:26:15.013Z,73.77
2019-01-27T10:31:28.405Z,73.93
2019-01-27T10:36:48.582Z,73.88
2019-01-27T10:42:01.313Z,73.48
2019-01-27T10:47:25.396Z,72.61
2019-01-27T10:52:49.400Z,72.44
2019-01-27T10:58:11.609Z,72.76
2019-01-27T11:03:44.935Z,73.07
2019-01-27T11:08:56.348Z,72.72
2019-01-27T11:14:20.500Z,72.38
2019-01-27T11:19:41.875Z,72.31
2019-01-27T11:25:06.173Z,72.30
2019-01-27T11:30:28.703Z,72.91
2019-01-27T11:35:53.011Z,73.22
2019-01-27T11:41:20.789Z,73.23
2019-01-27T11:46:48.102Z,73.06
2019-01-27T11:51:54.144Z,72.71
2019-01-27T11:56:56.504Z,72.33
2019-01-27T12:01:58.571Z,71.68
2019-01-27T12:07:00.441Z,70.92
2019-01-27T12:12:02.904Z,66.59
2019-01-27T12:17:05.097Z,63.97
2019-01-27T12:22:07.313Z,61.18
2019-01-27T12:27:09.384Z,57.38
2019-01-27T12:32:16.009Z,54.69
2019-01-27T12:37:18.990Z,55.65
2019-01-27T12:42:21.507Z,54.08
2019-01-27T12:47:25.583Z,57.08
2019-01-27T12:52:27.873Z,59.09
2019-01-27T12:57:30.473Z,58.39
2019-01-27T13:08:29.421Z,56.71
2019-01-27T13:13:31.858Z,56.71
2019-01-27T13:18:34.003Z,60.60
2019-01-27T13:23:36.414Z,61.21
2019-01-27T13:28:38.990Z,64.83
2019-01-27T13:33:41.223Z,65.86
2019-01-27T13:38:50.827Z,65.91
2019-01-27T13:43:48.967Z,66.66
2019-01-27T13:48:51.193Z,67.18
2019-01-27T13:53:53.803Z,67.48
2019-01-27T13:58:58.748Z,67.47
2019-01-27T14:04:01.201Z,67.71
2019-01-27T14:09:06.424Z,67.80
2019-01-27T14:14:09.141Z,67.85
2019-01-27T14:19:17.697Z,67.45
2019-01-27T14:24:20.028Z,67.10
2019-01-27T14:29:22.704Z,67.36
2019-01-27T14:34:24.875Z,67.34
2019-01-27T14:39:27.702Z,67.02
2019-01-27T14:44:30.580Z,67.24
2019-01-27T14:49:32.308Z,66.34
2019-01-27T14:54:34.904Z,65.89
2019-01-27T14:59:37.326Z,66.13
2019-01-27T15:04:39.745Z,67.00
2019-01-27T15:09:41.915Z,67.14
2019-01-27T15:14:44.354Z,67.40
2019-01-27T15:19:46.958Z,67.58
2019-01-27T15:24:49.274Z,67.86
2019-01-27T15:29:51.609Z,67.74
2019-01-27T15:34:54.177Z,67.88
2019-01-27T15:39:56.462Z,68.12
2019-01-27T15:45:00.326Z,68.20
2019-01-27T15:50:02.933Z,68.29
2019-01-27T15:55:07.476Z,68.23
2019-01-27T16:00:13.509Z,68.30
2019-01-27T16:05:17.297Z,68.41
2019-01-27T16:10:21.019Z,68.36
2019-01-27T16:15:25.827Z,68.41
2019-01-27T16:20:28.442Z,68.30
2019-01-27T16:25:30.694Z,68.39
2019-01-27T16:30:50.602Z,68.39
2019-01-27T16:35:52.963Z,68.38
2019-01-27T16:40:55.591Z,68.41
2019-01-27T16:45:58.330Z,68.35
2019-01-27T16:51:00.519Z,68.47
2019-01-27T16:56:03.274Z,68.47
2019-01-27T17:01:05.855Z,68.40
2019-01-27T17:06:08.191Z,68.38
2019-01-27T17:11:10.725Z,68.30
2019-01-27T17:16:13.055Z,68.37
2019-01-27T17:21:15.287Z,68.28
2019-01-27T17:26:17.748Z,68.26
2019-01-27T17:31:20.258Z,68.27
2019-01-27T17:36:22.717Z,68.32
2019-01-27T17:41:25.511Z,68.33
2019-01-27T17:46:27.740Z,68.33
2019-01-27T17:51:30.109Z,68.32
2019-01-27T17:56:32.511Z,68.35
2019-01-27T18:02:04.639Z,68.30
2019-01-27T18:07:20.118Z,68.24
2019-01-27T18:12:31.129Z,68.34
2019-01-27T18:17:33.298Z,68.39
2019-01-27T18:22:35.708Z,68.40
2019-01-27T18:27:38.302Z,68.51
2019-01-27T18:32:41.509Z,68.37
2019-01-27T18:37:45.075Z,68.35
2019-01-27T18:42:48.239Z,68.25
2019-01-27T18:47:50.970Z,68.31
2019-01-27T18:53:03.757Z,68.45
2019-01-27T18:58:21.477Z,68.50
2019-01-27T19:03:32.421Z,68.48
2019-01-27T19:08:56.798Z,68.55
2019-01-27T19:14:19.130Z,68.57
2019-01-27T19:19:29.660Z,68.58
2019-01-27T19:24:45.179Z,68.59
2019-01-27T19:29:54.399Z,68.61
2019-01-27T19:35:14.244Z,68.68
2019-01-27T19:40:30.339Z,68.74
2019-01-27T19:45:46.946Z,68.67
2019-01-27T19:51:08.691Z,68.57
2019-01-27T19:56:29.013Z,68.63
2019-01-27T20:01:49.182Z,68.79
2019-01-27T20:07:10.466Z,68.83
2019-01-27T20:12:30.684Z,68.77
2019-01-27T20:18:03.258Z,68.65
2019-01-27T20:23:24.597Z,68.82
2019-01-27T20:28:52.215Z,68.87
2019-01-27T20:34:05.815Z,68.98
2019-01-27T20:39:27.837Z,68.97
2019-01-27T20:44:37.226Z,69.05
2019-01-27T20:49:48.957Z,69.05
2019-01-27T20:55:11.682Z,69.00
2019-01-27T21:00:25.251Z,68.93
2019-01-27T21:05:45.243Z,68.91
2019-01-27T21:11:18.524Z,68.92
2019-01-27T21:16:47.225Z,68.83
2019-01-27T21:21:49.623Z,68.73
2019-01-27T21:26:52.481Z,68.75
2019-01-27T21:31:54.947Z,68.73
2019-01-27T21:36:57.319Z,68.73
2019-01-27T21:41:59.270Z,68.86
2019-01-27T21:47:01.575Z,68.85
2019-01-27T21:52:03.542Z,68.79
2019-01-27T21:57:05.316Z,68.93
2019-01-27T22:02:07.118Z,68.99
2019-01-27T22:07:09.798Z,69.02
2019-01-27T22:12:11.911Z,68.95
2019-01-27T22:17:13.543Z,68.90
2019-01-27T22:22:15.142Z,68.81
2019-01-27T22:27:16.844Z,68.83
2019-01-27T22:32:18.605Z,68.89
2019-01-27T22:37:20.311Z,68.79
2019-01-27T22:42:22.020Z,68.86
2019-01-27T22:47:23.758Z,68.92
2019-01-27T22:52:25.351Z,68.98
2019-01-27T22:57:26.932Z,68.97
2019-01-27T23:02:28.509Z,68.96
2019-01-27T23:07:30.119Z,68.96
2019-01-27T23:12:31.830Z,68.99
2019-01-27T23:17:33.465Z,68.97
2019-01-27T23:22:35.178Z,69.04
2019-01-27T23:27:36.796Z,69.03
2019-01-27T23:32:38.516Z,68.94
2019-01-27T23:37:40.225Z,68.98
2019-01-27T23:42:41.954Z,69.03
2019-01-27T23:47:44.157Z,69.03
2019-01-27T23:52:45.739Z,69.14
2019-01-27T23:57:47.406Z,69.05
